Time;durP1;ratioP1;P1;durP2;ratioP2;P2;SDS_P1;SDS_P2;PMS_P1;PMS_P2;Temp;Humidity;BMP_temperature;BMP_pressure;BME280_temperature;BME280_humidity;BME280_pressure;Samples;Min_cycle;Max_cycle;Signal;HPM_P1;HPM_P2
2021/03/03 00:01:06;;;;;;;1999.90;999.90;;;18.10;91.70;;;;;;5056215;28;20166;-44
2021/03/03 00:03:33;;;;;;;1999.90;999.90;;;18.10;91.60;;;;;;5056137;28;20208;-44
2021/03/03 00:06:00;;;;;;;1999.90;999.90;;;18.10;91.60;;;;;;5056236;28;20636;-44
2021/03/03 00:08:27;;;;;;;1999.90;999.90;;;18.00;91.60;;;;;;5055956;28;20586;-44
2021/03/03 00:10:54;;;;;;;1999.90;999.90;;;18.00;91.70;;;;;;5055913;28;20384;-44
2021/03/03 00:13:21;;;;;;;1999.90;999.90;;;18.00;91.80;;;;;;5055962;28;20176;-45
2021/03/03 00:15:47;;;;;;;1999.90;999.90;;;18.00;91.80;;;;;;5055868;28;20180;-44
2021/03/03 00:18:14;;;;;;;1999.90;999.90;;;17.90;92.10;;;;;;5055845;28;20169;-44
2021/03/03 00:20:41;;;;;;;1999.90;999.90;;;17.80;92.00;;;;;;5055741;28;20264;-44
2021/03/03 00:23:08;;;;;;;1999.90;999.90;;;17.90;92.00;;;;;;5055759;28;20575;-44
2021/03/03 00:25:34;;;;;;;1999.90;999.90;;;17.80;91.80;;;;;;5055726;28;20169;-47
2021/03/03 00:28:01;;;;;;;1999.90;999.90;;;17.80;91.80;;;;;;5055717;28;20169;-44
2021/03/03 00:30:28;;;;;;;1999.90;999.90;;;17.90;91.90;;;;;;5055561;28;20276;-44
2021/03/03 00:32:55;;;;;;;1999.90;999.90;;;17.80;91.80;;;;;;5054388;28;20672;-44
2021/03/03 00:35:22;;;;;;;1999.90;999.90;;;17.80;91.80;;;;;;5054334;28;20193;-44
2021/03/03 00:37:48;;;;;;;1999.90;999.90;;;17.70;91.80;;;;;;5054293;28;20180;-44
2021/03/03 00:40:16;;;;;;;1999.90;999.90;;;17.60;91.10;;;;;;5053866;28;20633;-44
2021/03/03 00:42:42;;;;;;;1999.90;999.90;;;17.60;91.10;;;;;;5054237;28;20177;-45
2021/03/03 00:45:10;;;;;;;1999.90;999.90;;;17.60;91.80;;;;;;5052950;28;20169;-43
2021/03/03 00:47:37;;;;;;;1999.90;999.90;;;17.60;92.10;;;;;;5054199;28;20697;-44
2021/03/03 00:50:04;;;;;;;1999.90;999.90;;;17.60;92.10;;;;;;5054164;28;20656;-43
2021/03/03 00:52:31;;;;;;;1999.90;999.90;;;17.60;92.30;;;;;;5054700;28;20174;-43
2021/03/03 00:54:58;;;;;;;1999.90;999.90;;;17.60;92.30;;;;;;5054032;28;20161;-43
2021/03/03 00:57:25;;;;;;;1999.90;999.90;;;17.60;92.40;;;;;;5054018;28;20165;-44
2021/03/03 00:59:52;;;;;;;1999.90;999.90;;;17.50;92.70;;;;;;5053978;28;20260;-44
2021/03/03 01:02:18;;;;;;;1999.90;999.90;;;17.50;92.90;;;;;;5053897;28;20245;-46
2021/03/03 01:04:45;;;;;;;1999.90;999.90;;;17.40;93.00;;;;;;5053957;28;20161;-46
2021/03/03 01:07:12;;;;;;;1999.90;999.90;;;17.40;92.90;;;;;;5053918;28;20675;-46
2021/03/03 01:09:39;;;;;;;1999.90;999.90;;;17.40;93.20;;;;;;5053720;28;20601;-46
2021/03/03 01:12:06;;;;;;;1999.90;999.90;;;17.30;93.20;;;;;;5053882;28;20223;-46
2021/03/03 01:14:33;;;;;;;1999.90;999.90;;;17.30;93.10;;;;;;5054036;28;20161;-46
2021/03/03 01:17:00;;;;;;;1999.90;999.90;;;17.30;93.20;;;;;;5053730;28;20195;-43
2021/03/03 01:19:26;;;;;;;1999.90;999.90;;;17.20;93.40;;;;;;5053715;28;20165;-46
2021/03/03 01:21:53;;;;;;;1999.90;999.90;;;17.20;93.60;;;;;;5053618;28;20168;-44
2021/03/03 01:24:20;;;;;;;1999.90;999.90;;;17.10;93.70;;;;;;5053664;28;20273;-44
2021/03/03 01:26:47;;;;;;;1999.90;999.90;;;17.10;93.80;;;;;;5053546;28;20165;-44
2021/03/03 01:29:13;;;;;;;1999.90;999.90;;;17.10;93.90;;;;;;5053476;28;20558;-44
2021/03/03 01:31:40;;;;;;;1999.90;999.90;;;17.00;93.90;;;;;;4999808;28;1537147;-44
2021/03/03 01:34:07;;;;;;;1999.90;999.90;;;17.00;93.90;;;;;;5054873;28;20223;-44
2021/03/03 01:36:34;;;;;;;1999.90;999.90;;;17.00;94.10;;;;;;5054408;28;20181;-44
2021/03/03 01:39:01;;;;;;;1999.90;999.90;;;17.00;94.10;;;;;;5054284;28;20256;-43
2021/03/03 01:41:28;;;;;;;1999.90;999.90;;;17.00;94.10;;;;;;5054290;28;20172;-44
2021/03/03 01:43:54;;;;;;;1999.90;999.90;;;17.00;93.80;;;;;;5054236;28;20252;-47
2021/03/03 01:46:22;;;;;;;1999.90;999.90;;;17.00;93.80;;;;;;5054247;28;20169;-46
2021/03/03 01:48:49;;;;;;;1999.90;999.90;;;16.90;93.80;;;;;;5054245;28;20654;-46
2021/03/03 01:51:18;;;;;;;1999.90;999.90;;;16.80;94.00;;;;;;5053177;28;20239;-46
2021/03/03 01:53:44;;;;;;;1999.90;999.90;;;16.70;94.20;;;;;;5054103;28;20707;-45
2021/03/03 01:56:12;;;;;;;1999.90;999.90;;;16.70;94.00;;;;;;5054088;28;20181;-46
2021/03/03 01:58:39;;;;;;;1999.90;999.90;;;16.60;94.10;;;;;;5054108;28;20165;-47
2021/03/03 02:01:06;;;;;;;1999.90;999.90;;;16.50;94.30;;;;;;5053948;28;20628;-46
2021/03/03 02:03:37;;;;;;;1999.90;999.90;;;16.50;94.50;;;;;;5053864;28;20228;-45
2021/03/03 02:06:14;;;;;;;1999.90;999.90;;;16.50;94.30;;;;;;5054161;28;20244;-44
2021/03/03 02:08:54;;;;;;;1999.90;999.90;;;16.60;94.10;;;;;;5053882;28;20514;-44
2021/03/03 02:11:27;;;;;;;1999.90;999.90;;;16.50;94.00;;;;;;5053632;28;20212;-45
2021/03/03 02:14:01;;;;;;;1999.90;999.90;;;16.50;94.30;;;;;;5053775;28;20558;-44
2021/03/03 02:16:28;;;;;;;1999.90;999.90;;;16.40;94.00;;;;;;5053651;28;20203;-45
2021/03/03 02:18:58;;;;;;;1999.90;999.90;;;16.20;94.60;;;;;;5053605;28;20176;-44
2021/03/03 02:22:09;;;;;;;1999.90;999.90;;;16.20;95.20;;;;;;5053538;28;20166;-44
2021/03/03 02:24:53;;;;;;;1999.90;999.90;;;16.00;95.80;;;;;;5032348;28;20216;-45
2021/03/03 02:27:22;;;;;;;1999.90;999.90;;;15.80;96.40;;;;;;5053470;28;20523;-45
2021/03/03 02:29:50;;;;;;;1999.90;999.90;;;15.70;96.80;;;;;;5053311;28;20201;-45
2021/03/03 02:32:19;;;;;;;1999.90;999.90;;;15.60;97.30;;;;;;5053157;28;20249;-45
2021/03/03 02:34:46;;;;;;;1999.90;999.90;;;15.70;97.60;;;;;;5053257;28;20173;-46
2021/03/03 02:37:18;;;;;;;1999.90;999.90;;;15.60;98.10;;;;;;5053423;28;20258;-45
2021/03/03 02:39:46;;;;;;;1999.90;999.90;;;15.60;98.20;;;;;;5053324;28;20157;-44
2021/03/03 02:42:14;;;;;;;1999.90;999.90;;;15.50;99.00;;;;;;5053309;28;20168;-44
2021/03/03 02:44:42;;;;;;;1999.90;999.90;;;15.50;98.80;;;;;;5053293;28;20180;-44
2021/03/03 02:47:09;;;;;;;1999.90;999.90;;;15.50;98.90;;;;;;5053111;28;20176;-45
2021/03/03 02:49:36;;;;;;;1999.90;999.90;;;15.50;99.30;;;;;;5053028;28;20161;-44
2021/03/03 02:52:03;;;;;;;1999.90;999.90;;;15.60;98.70;;;;;;5053022;28;20181;-44
2021/03/03 02:54:30;;;;;;;1999.90;999.90;;;15.60;99.10;;;;;;5053005;28;20754;-43
2021/03/03 02:56:57;;;;;;;1999.90;999.90;;;15.50;99.00;;;;;;5053045;28;20742;-47
2021/03/03 02:59:41;;;;;;;1999.90;999.90;;;15.60;98.90;;;;;;5052945;28;20172;-45
2021/03/03 03:02:12;;;;;;;1999.90;999.90;;;15.70;98.80;;;;;;5052832;28;20165;-46
2021/03/03 03:04:43;;;;;;;1999.90;999.90;;;15.70;98.50;;;;;;5052959;28;20567;-46
2021/03/03 03:07:21;;;;;;;1999.90;999.90;;;15.80;98.30;;;;;;5052949;28;20248;-44
2021/03/03 03:09:50;;;;;;;1999.90;999.90;;;15.80;98.40;;;;;;5052963;28;20540;-43
2021/03/03 03:12:18;;;;;;;1999.90;999.90;;;15.80;98.40;;;;;;5052957;28;20335;-44
2021/03/03 03:14:47;;;;;;;1999.90;999.90;;;15.80;98.30;;;;;;5053169;28;20242;-44
2021/03/03 03:17:17;;;;;;;1999.90;999.90;;;15.80;98.30;;;;;;5052885;28;20636;-44
2021/03/03 03:19:47;;;;;;;1999.90;999.90;;;15.90;98.00;;;;;;5053044;28;20227;-46
2021/03/03 03:22:18;;;;;;;1999.90;999.90;;;15.90;97.50;;;;;;5052815;28;20189;-46
2021/03/03 03:24:45;;;;;;;1999.90;999.90;;;15.90;97.50;;;;;;5052767;28;20583;-44
2021/03/03 03:27:12;;;;;;;1999.90;999.90;;;15.90;97.30;;;;;;5052743;28;20180;-44
2021/03/03 03:29:41;;;;;;;1999.90;999.90;;;15.90;97.30;;;;;;5052523;28;20172;-44
2021/03/03 03:32:10;;;;;;;1999.90;999.90;;;15.90;97.10;;;;;;5052443;28;20220;-44
2021/03/03 03:34:37;;;;;;;1999.90;999.90;;;15.90;97.30;;;;;;5052614;28;20697;-44
2021/03/03 03:37:06;;;;;;;1999.90;999.90;;;15.90;97.50;;;;;;5052630;28;20655;-44
2021/03/03 03:39:34;;;;;;;1999.90;999.90;;;15.80;98.00;;;;;;5052584;28;20176;-44
2021/03/03 03:42:02;;;;;;;1999.90;999.90;;;15.80;98.30;;;;;;5052529;28;20200;-44
2021/03/03 03:44:31;;;;;;;1999.90;999.90;;;15.90;98.60;;;;;;5052492;28;20172;-44
2021/03/03 03:46:59;;;;;;;1999.90;999.90;;;15.90;98.50;;;;;;5052490;28;20227;-45
2021/03/03 03:49:26;;;;;;;1999.90;999.90;;;15.90;98.30;;;;;;5052428;28;20165;-44
2021/03/03 03:51:53;;;;;;;1999.90;999.90;;;15.90;98.50;;;;;;5052398;28;20196;-44
2021/03/03 03:54:20;;;;;;;1999.90;999.90;;;15.80;98.60;;;;;;5052464;28;20177;-44
2021/03/03 03:56:47;;;;;;;1999.90;999.90;;;15.90;98.80;;;;;;5052529;28;20522;-44
2021/03/03 03:59:14;;;;;;;1999.90;999.90;;;15.90;98.90;;;;;;5052314;28;20257;-44
2021/03/03 04:01:41;;;;;;;1999.90;999.90;;;15.90;98.70;;;;;;5052320;28;20294;-44
2021/03/03 04:04:08;;;;;;;1999.90;999.90;;;16.00;98.60;;;;;;5052335;28;20169;-44
2021/03/03 04:06:34;;;;;;;1999.90;999.90;;;16.10;98.10;;;;;;5052353;28;20161;-46
2021/03/03 04:09:01;;;;;;;1999.90;999.90;;;16.00;98.00;;;;;;5052257;28;20181;-44
2021/03/03 04:11:28;;;;;;;1999.90;999.90;;;16.10;98.00;;;;;;5052137;28;20204;-44
2021/03/03 04:13:55;;;;;;;1999.90;999.90;;;16.20;98.00;;;;;;5053057;28;20636;-45
2021/03/03 04:16:22;;;;;;;1999.90;999.90;;;16.00;97.90;;;;;;5055943;28;20505;-44
2021/03/03 04:18:48;;;;;;;1999.90;999.90;;;15.80;98.30;;;;;;5055872;28;20161;-46
2021/03/03 04:21:15;;;;;;;1999.90;999.90;;;15.90;98.60;;;;;;5055814;28;20169;-46
2021/03/03 04:23:42;;;;;;;1999.90;999.90;;;15.90;98.70;;;;;;5055695;28;20283;-46
2021/03/03 04:26:09;;;;;;;1999.90;999.90;;;15.90;98.40;;;;;;5055720;28;20231;-46
2021/03/03 04:28:36;;;;;;;1999.90;999.90;;;16.00;98.50;;;;;;5055799;28;20238;-45
2021/03/03 04:31:03;;;;;;;1999.90;999.90;;;16.10;98.30;;;;;;5055334;28;20200;-44
2021/03/03 04:33:31;;;;;;;1999.90;999.90;;;16.10;98.20;;;;;;5055616;28;20242;-46
2021/03/03 04:35:57;;;;;;;1999.90;999.90;;;16.10;97.90;;;;;;5055436;28;20169;-44
2021/03/03 04:38:24;;;;;;;1999.90;999.90;;;16.00;97.70;;;;;;5055666;28;20169;-44
2021/03/03 04:40:51;;;;;;;1999.90;999.90;;;16.00;97.40;;;;;;5055615;28;20180;-45
2021/03/03 04:43:18;;;;;;;1999.90;999.90;;;15.90;97.50;;;;;;5055444;28;20521;-44
2021/03/03 04:45:45;;;;;;;1999.90;999.90;;;15.90;97.60;;;;;;5055345;28;20172;-45
2021/03/03 04:48:12;;;;;;;1999.90;999.90;;;15.80;97.70;;;;;;5055199;28;20180;-44
2021/03/03 04:50:39;;;;;;;1999.90;999.90;;;15.70;97.90;;;;;;5055178;28;20201;-44
2021/03/03 04:53:06;;;;;;;1999.90;999.90;;;15.80;98.00;;;;;;5055206;28;20169;-44
2021/03/03 04:55:33;;;;;;;1999.90;999.90;;;15.70;97.90;;;;;;5055052;28;20184;-48
2021/03/03 04:58:00;;;;;;;1999.90;999.90;;;15.90;97.80;;;;;;5054989;28;20161;-44
2021/03/03 05:00:27;;;;;;;1999.90;999.90;;;15.80;97.70;;;;;;5054666;28;20231;-47
2021/03/03 05:02:54;;;;;;;1999.90;999.90;;;15.80;97.80;;;;;;5054838;28;20169;-44
2021/03/03 05:05:21;;;;;;;1999.90;999.90;;;15.80;97.90;;;;;;5054572;28;20659;-45
2021/03/03 05:07:48;;;;;;;1999.90;999.90;;;15.80;97.90;;;;;;5054664;28;20541;-44
2021/03/03 05:10:15;;;;;;;1999.90;999.90;;;15.90;97.90;;;;;;5054424;28;20185;-45
2021/03/03 05:12:42;;;;;;;1999.90;999.90;;;15.90;97.90;;;;;;5054712;28;20215;-44
2021/03/03 05:15:09;;;;;;;1999.90;999.90;;;16.00;97.80;;;;;;5054775;28;20165;-44
2021/03/03 05:17:36;;;;;;;1999.90;999.90;;;15.90;97.90;;;;;;5054498;28;20180;-44
2021/03/03 05:20:04;;;;;;;1999.90;999.90;;;16.00;97.90;;;;;;5054442;28;20642;-45
2021/03/03 05:22:31;;;;;;;1999.90;999.90;;;16.00;97.90;;;;;;5054342;28;20170;-47
2021/03/03 05:24:58;;;;;;;1999.90;999.90;;;16.10;97.90;;;;;;5053658;28;20187;-44
2021/03/03 05:27:24;;;;;;;1999.90;999.90;;;16.20;97.70;;;;;;5053827;28;20176;-46
2021/03/03 05:29:51;;;;;;;1999.90;999.90;;;16.20;97.70;;;;;;5053996;28;20169;-45
2021/03/03 05:32:18;;;;;;;1999.90;999.90;;;16.10;98.00;;;;;;5054008;28;20776;-49
2021/03/03 05:34:45;;;;;;;1999.90;999.90;;;16.20;97.90;;;;;;5054076;28;20532;-47
2021/03/03 05:37:12;;;;;;;1999.90;999.90;;;16.30;97.80;;;;;;5053375;28;20162;-46
2021/03/03 05:39:39;;;;;;;1999.90;999.90;;;16.20;97.90;;;;;;5053596;28;20218;-45
2021/03/03 05:42:06;;;;;;;1999.90;999.90;;;16.30;98.00;;;;;;5052449;28;20165;-45
2021/03/03 05:44:33;;;;;;;1999.90;999.90;;;16.10;97.60;;;;;;5053090;28;20222;-48
2021/03/03 05:47:02;;;;;;;1999.90;999.90;;;15.90;98.80;;;;;;5053155;28;20632;-45
2021/03/03 05:49:30;;;;;;;1999.90;999.90;;;15.90;99.20;;;;;;5053598;28;20539;-46
2021/03/03 05:51:58;;;;;;;1999.90;999.90;;;16.00;98.80;;;;;;5053629;28;20647;-46
2021/03/03 05:54:26;;;;;;;1999.90;999.90;;;16.00;98.70;;;;;;5053334;28;20166;-48
2021/03/03 05:56:56;;;;;;;1999.90;999.90;;;16.10;98.50;;;;;;5053448;28;20169;-45
2021/03/03 05:59:23;;;;;;;1999.90;999.90;;;16.10;98.80;;;;;;5052815;28;20192;-45
2021/03/03 06:01:50;;;;;;;1999.90;999.90;;;16.10;98.50;;;;;;5053230;28;20235;-45
2021/03/03 06:04:17;;;;;;;1999.90;999.90;;;15.90;98.70;;;;;;5053468;28;20684;-43
2021/03/03 06:06:45;;;;;;;1999.90;999.90;;;15.80;99.10;;;;;;5052807;28;20568;-49
2021/03/03 06:09:12;;;;;;;1999.90;999.90;;;16.00;98.90;;;;;;5053363;28;20238;-42
2021/03/03 06:11:39;;;;;;;1999.90;999.90;;;16.20;98.00;;;;;;5053348;28;20201;-43
2021/03/03 06:14:06;;;;;;;1999.90;999.90;;;16.60;97.20;;;;;;5053325;28;20622;-46
2021/03/03 06:16:33;;;;;;;1999.90;999.90;;;16.50;97.00;;;;;;5053478;28;20169;-48
2021/03/03 06:19:00;;;;;;;1999.90;999.90;;;16.50;96.90;;;;;;5052466;28;20200;-54
2021/03/03 06:21:29;;;;;;;1999.90;999.90;;;16.30;97.40;;;;;;5053353;28;20691;-49
2021/03/03 06:24:14;;;;;;;1999.90;999.90;;;16.50;97.30;;;;;;5053391;28;20164;-49
2021/03/03 06:27:02;;;;;;;1999.90;999.90;;;16.70;96.40;;;;;;5052523;28;20165;-47
2021/03/03 06:29:29;;;;;;;1999.90;999.90;;;16.80;96.40;;;;;;5048713;28;20662;-45
2021/03/03 06:32:02;;;;;;;1999.90;999.90;;;16.90;96.00;;;;;;5052543;28;20694;-48
2021/03/03 06:34:29;;;;;;;1999.90;999.90;;;16.90;96.50;;;;;;5053404;28;20165;-47
2021/03/03 06:36:56;;;;;;;1999.90;999.90;;;17.30;95.80;;;;;;5053310;28;20169;-48
2021/03/03 06:39:36;;;;;;;1999.90;999.90;;;17.60;94.90;;;;;;5052759;28;20524;-50
2021/03/03 06:42:06;;;;;;;1999.90;999.90;;;17.70;94.60;;;;;;5051427;28;20173;-46
2021/03/03 06:44:56;;;;;;;1999.90;999.90;;;18.00;93.80;;;;;;5053030;28;20193;-47
2021/03/03 06:47:24;;;;;;;1999.90;999.90;;;18.20;93.10;;;;;;5033039;28;20181;-48
2021/03/03 06:49:52;;;;;;;1999.90;999.90;;;18.30;93.00;;;;;;5032848;28;20170;-48
2021/03/03 06:52:38;;;;;;;1999.90;999.90;;;18.40;92.50;;;;;;5032747;28;20165;-47
2021/03/03 06:55:05;;;;;;;1999.90;999.90;;;18.50;92.10;;;;;;5032658;28;20491;-49
2021/03/03 06:57:32;;;;;;;1999.90;999.90;;;18.70;91.80;;;;;;5040994;28;20204;-49
2021/03/03 06:59:59;;;;;;;1999.90;999.90;;;18.90;91.20;;;;;;5052535;28;20165;-50
2021/03/03 07:02:34;;;;;;;1999.90;999.90;;;19.00;90.70;;;;;;5052501;28;20170;-52
2021/03/03 07:05:02;;;;;;;1999.90;999.90;;;19.20;90.60;;;;;;5052749;28;20165;-47
2021/03/03 07:07:29;;;;;;;1999.90;999.90;;;19.30;90.10;;;;;;5052648;28;20161;-46
2021/03/03 07:09:59;;;;;;;1999.90;999.90;;;19.20;90.30;;;;;;5052311;28;20656;-46
2021/03/03 07:12:31;;;;;;;1999.90;999.90;;;19.40;90.00;;;;;;5052037;28;20195;-45
2021/03/03 07:15:05;;;;;;;1999.90;999.90;;;19.70;89.10;;;;;;5052126;28;20746;-44
2021/03/03 07:17:43;;;;;;;1999.90;999.90;;;20.00;87.70;;;;;;5052417;28;20161;-49
2021/03/03 07:20:19;;;;;;;1999.90;999.90;;;20.40;85.90;;;;;;5052042;28;20196;-55
2021/03/03 07:22:51;;;;;;;1999.90;999.90;;;20.70;84.40;;;;;;5052019;28;20160;-48
2021/03/03 07:25:20;;;;;;;1999.90;999.90;;;21.00;82.90;;;;;;5052439;28;20193;-57
2021/03/03 07:27:48;;;;;;;1999.90;999.90;;;21.10;83.40;;;;;;5052443;28;20203;-54
2021/03/03 07:30:23;;;;;;;1999.90;999.90;;;21.20;83.40;;;;;;5051752;28;20209;-49
2021/03/03 07:32:51;;;;;;;1999.90;999.90;;;21.20;82.90;;;;;;5051484;28;20212;-54
2021/03/03 07:35:18;;;;;;;1999.90;999.90;;;21.30;82.80;;;;;;5051841;28;20173;-57
2021/03/03 07:37:51;;;;;;;1999.90;999.90;;;21.30;82.90;;;;;;5052027;28;20189;-56
2021/03/03 07:40:18;;;;;;;1999.90;999.90;;;21.50;82.80;;;;;;5052099;28;20559;-61
2021/03/03 07:42:53;;;;;;;1999.90;999.90;;;21.70;81.70;;;;;;5051908;28;20176;-52
2021/03/03 07:45:22;;;;;;;1999.90;999.90;;;21.90;80.80;;;;;;5052127;28;20242;-58
2021/03/03 07:47:50;;;;;;;1999.90;999.90;;;22.00;80.40;;;;;;5052167;28;20177;-59
2021/03/03 07:50:20;;;;;;;1999.90;999.90;;;22.10;79.40;;;;;;5054903;28;20246;-52
2021/03/03 07:52:58;;;;;;;1999.90;999.90;;;22.40;78.30;;;;;;5055560;28;20180;-48
2021/03/03 07:55:25;;;;;;;1999.90;999.90;;;22.70;76.50;;;;;;5055778;28;20687;-48
2021/03/03 07:57:54;;;;;;;1999.90;999.90;;;22.90;75.70;;;;;;5055348;28;20189;-44
2021/03/03 08:00:31;;;;;;;1999.90;999.90;;;23.20;75.40;;;;;;5055813;28;20588;-49
2021/03/03 08:02:58;;;;;;;1999.90;999.90;;;23.40;73.80;;;;;;5055210;28;20234;-47
2021/03/03 08:05:29;;;;;;;1999.90;999.90;;;23.70;72.00;;;;;;5055564;28;20162;-49
2021/03/03 08:08:12;;;;;;;1999.90;999.90;;;24.00;71.50;;;;;;5054469;28;20291;-45
2021/03/03 08:10:41;;;;;;;1999.90;999.90;;;24.30;69.70;;;;;;5055475;28;20544;-47
2021/03/03 08:13:17;;;;;;;1999.90;999.90;;;24.70;67.70;;;;;;5055460;28;20181;-45
2021/03/03 08:15:46;;;;;;;1999.90;999.90;;;25.20;66.00;;;;;;5055119;28;20157;-45
2021/03/03 08:18:19;;;;;;;1999.90;999.90;;;25.60;63.40;;;;;;5055735;28;20169;-48
2021/03/03 08:20:48;;;;;;;1999.90;999.90;;;26.50;60.60;;;;;;5055511;28;20220;-44
2021/03/03 08:23:33;;;;;;;1999.90;999.90;;;27.20;58.10;;;;;;5055196;28;20200;-46
2021/03/03 08:26:05;;;;;;;1999.90;999.90;;;27.80;56.70;;;;;;5054938;28;20169;-40
2021/03/03 08:28:52;;;;;;;1999.90;999.90;;;28.50;54.20;;;;;;5052617;28;20200;-41
2021/03/03 08:31:24;;;;;;;1999.90;999.90;;;28.30;52.60;;;;;;5054061;28;20220;-46
2021/03/03 08:33:51;;;;;;;1999.90;999.90;;;28.50;52.60;;;;;;5055291;28;20268;-59
2021/03/03 08:36:18;;;;;;;1999.90;999.90;;;29.40;49.40;;;;;;5054555;28;20177;-52
2021/03/03 08:39:10;;;;;;;1999.90;999.90;;;30.30;47.40;;;;;;5054757;28;20173;-50
2021/03/03 08:41:41;;;;;;;1999.90;999.90;;;30.30;46.60;;;;;;5049481;28;20189;-50
2021/03/03 08:44:16;;;;;;;1999.90;999.90;;;29.80;47.40;;;;;;5053523;28;20195;-46
2021/03/03 08:46:42;;;;;;;1999.90;999.90;;;30.70;45.60;;;;;;5055144;28;20546;-46
2021/03/03 08:49:09;;;;;;;1999.90;999.90;;;30.50;46.20;;;;;;5055153;28;20166;-47
2021/03/03 08:51:42;;;;;;;1999.90;999.90;;;30.80;45.00;;;;;;5054914;28;20292;-45
2021/03/03 08:54:13;;;;;;;1999.90;999.90;;;30.40;45.60;;;;;;5054453;28;20219;-55
2021/03/03 08:56:52;;;;;;;1999.90;999.90;;;29.80;47.00;;;;;;5055063;28;20150;-49
2021/03/03 08:59:37;;;;;;;1999.90;999.90;;;29.90;46.90;;;;;;5054829;28;20599;-43
2021/03/03 09:02:07;;;;;;;1999.90;999.90;;;29.70;46.20;;;;;;5054721;28;20223;-49
2021/03/03 09:04:51;;;;;;;1999.90;999.90;;;30.00;45.60;;;;;;5054465;28;20227;-45
2021/03/03 09:07:22;;;;;;;1999.90;999.90;;;30.10;45.00;;;;;;5054748;28;20162;-56
2021/03/03 09:09:52;;;;;;;1999.90;999.90;;;30.10;44.10;;;;;;5054709;28;20558;-55
2021/03/03 09:12:27;;;;;;;1999.90;999.90;;;30.70;43.00;;;;;;5054346;28;20528;-49
2021/03/03 09:14:56;;;;;;;1999.90;999.90;;;30.80;42.00;;;;;;5034727;28;20165;-42
2021/03/03 09:17:31;;;;;;;1999.90;999.90;;;30.60;42.00;;;;;;5034489;28;20165;-51
2021/03/03 09:20:00;;;;;;;1999.90;999.90;;;31.10;41.30;;;;;;5034597;28;20149;-49
2021/03/03 09:22:38;;;;;;;1999.90;999.90;;;31.50;40.00;;;;;;5039901;28;20644;-46
2021/03/03 09:25:11;;;;;;;1999.90;999.90;;;31.20;40.10;;;;;;5054359;28;20165;-45
2021/03/03 09:27:49;;;;;;;1999.90;999.90;;;31.00;40.60;;;;;;5054505;28;20176;-38
2021/03/03 09:30:17;;;;;;;1999.90;999.90;;;30.30;42.20;;;;;;5054568;28;20200;-40
2021/03/03 09:32:45;;;;;;;1999.90;999.90;;;30.50;42.10;;;;;;5054189;28;20235;-43
2021/03/03 09:35:14;;;;;;;1999.90;999.90;;;31.00;40.60;;;;;;5054502;28;20173;-45
2021/03/03 09:37:43;;;;;;;1999.90;999.90;;;30.90;41.00;;;;;;5054429;28;20204;-40
2021/03/03 09:40:16;;;;;;;1999.90;999.90;;;30.70;40.80;;;;;;5053811;28;20651;-48
2021/03/03 09:42:48;;;;;;;1999.90;999.90;;;30.50;40.60;;;;;;5053879;28;20177;-51
2021/03/03 09:45:23;;;;;;;1999.90;999.90;;;31.30;40.60;;;;;;5054242;28;20157;-49
2021/03/03 09:47:52;;;;;;;1999.90;999.90;;;32.00;39.00;;;;;;5054102;28;20213;-46
2021/03/03 09:50:21;;;;;;;1999.90;999.90;;;32.80;37.70;;;;;;5053692;28;20228;-55
2021/03/03 09:52:50;;;;;;;1999.90;999.90;;;32.90;36.90;;;;;;5053638;28;20172;-47
2021/03/03 09:55:20;;;;;;;1999.90;999.90;;;32.00;37.00;;;;;;5053318;28;20572;-49
2021/03/03 09:57:53;;;;;;;1999.90;999.90;;;32.30;36.50;;;;;;5053856;28;20169;-60
2021/03/03 10:00:22;;;;;;;1999.90;999.90;;;31.10;37.80;;;;;;5054475;28;20571;-57
2021/03/03 10:02:56;;;;;;;1999.90;999.90;;;32.00;37.80;;;;;;5053181;28;20226;-46
2021/03/03 10:05:33;;;;;;;1999.90;999.90;;;32.50;36.30;;;;;;5053476;28;20620;-45
2021/03/03 10:08:03;;;;;;;1999.90;999.90;;;33.00;36.00;;;;;;5053383;28;20262;-45
2021/03/03 10:10:46;;;;;;;1999.90;999.90;;;33.50;34.20;;;;;;5053520;28;20193;-43
2021/03/03 10:13:27;;;;;;;1999.90;999.90;;;33.10;34.10;;;;;;5051241;28;20181;-42
2021/03/03 10:15:54;;;;;;;1999.90;999.90;;;33.00;34.40;;;;;;5053124;28;20535;-43
2021/03/03 10:18:21;;;;;;;1999.90;999.90;;;33.40;33.90;;;;;;5053373;28;20177;-41
2021/03/03 10:20:53;;;;;;;1999.90;999.90;;;33.70;33.30;;;;;;5053466;28;20173;-44
2021/03/03 10:23:30;;;;;;;1999.90;999.90;;;33.60;33.80;;;;;;5052989;28;20173;-45
2021/03/03 10:26:07;;;;;;;1999.90;999.90;;;33.50;32.40;;;;;;5052856;28;20201;-50
2021/03/03 10:28:36;;;;;;;1999.90;999.90;;;33.40;33.00;;;;;;5052652;28;20173;-52
2021/03/03 10:31:05;;;;;;;1999.90;999.90;;;32.80;32.60;;;;;;5052612;28;20223;-50
2021/03/03 10:33:39;;;;;;;1999.90;999.90;;;31.50;33.90;;;;;;5053083;28;20174;-58
2021/03/03 10:36:22;;;;;;;1999.90;999.90;;;31.20;34.70;;;;;;5051904;28;20510;-51
2021/03/03 10:38:58;;;;;;;1999.90;999.90;;;30.70;34.90;;;;;;5051388;28;20424;-58
2021/03/03 10:41:32;;;;;;;1999.90;999.90;;;31.30;34.90;;;;;;5052732;28;20165;-50
2021/03/03 10:44:00;;;;;;;1999.90;999.90;;;31.40;34.50;;;;;;5051744;28;20168;-57
2021/03/03 10:46:28;;;;;;;1999.90;999.90;;;32.20;35.50;;;;;;5053089;28;20211;-43
2021/03/03 10:48:56;;;;;;;1999.90;999.90;;;32.60;34.50;;;;;;5053006;28;20184;-50
2021/03/03 10:51:38;;;;;;;1999.90;999.90;;;33.00;34.10;;;;;;5052455;28;20225;-47
2021/03/03 10:54:06;;;;;;;1999.90;999.90;;;32.80;33.70;;;;;;5052828;28;20200;-44
2021/03/03 10:56:45;;;;;;;1999.90;999.90;;;32.00;36.20;;;;;;5053033;28;20256;-44
2021/03/03 10:59:24;;;;;;;1999.90;999.90;;;32.40;34.10;;;;;;5052858;28;20200;-41
2021/03/03 11:02:02;;;;;;;1999.90;999.90;;;32.40;34.40;;;;;;5052827;28;20523;-41
2021/03/03 11:04:43;;;;;;;1999.90;999.90;;;32.40;35.10;;;;;;5052638;28;20277;-55
2021/03/03 11:07:11;;;;;;;1999.90;999.90;;;32.70;34.40;;;;;;5052608;28;20158;-49
2021/03/03 11:09:38;;;;;;;1999.90;999.90;;;32.30;34.30;;;;;;5048572;28;20169;-57
2021/03/03 11:12:07;;;;;;;1999.90;999.90;;;32.60;34.30;;;;;;5052618;28;20205;-41
2021/03/03 11:14:35;;;;;;;1999.90;999.90;;;33.00;33.60;;;;;;5052694;28;20248;-49
2021/03/03 11:17:03;;;;;;;1999.90;999.90;;;33.30;33.00;;;;;;5052169;28;20249;-42
2021/03/03 11:19:30;;;;;;;1999.90;999.90;;;33.40;32.80;;;;;;5052591;28;20165;-44
2021/03/03 11:21:57;;;;;;;1999.90;999.90;;;33.00;32.80;;;;;;5052798;28;20184;-52
2021/03/03 11:24:24;;;;;;;1999.90;999.90;;;32.50;33.30;;;;;;5056240;28;20165;-45
2021/03/03 11:26:51;;;;;;;1999.90;999.90;;;31.90;34.20;;;;;;5056754;28;20165;-47
2021/03/03 11:29:18;;;;;;;1999.90;999.90;;;32.40;34.10;;;;;;5055333;28;20177;-55
2021/03/03 11:31:45;;;;;;;1999.90;999.90;;;31.90;33.60;;;;;;5056419;28;20220;-43
2021/03/03 11:34:13;;;;;;;1999.90;999.90;;;30.80;35.80;;;;;;5056627;28;20169;-44
2021/03/03 11:36:40;;;;;;;1999.90;999.90;;;31.30;37.10;;;;;;5056505;28;20169;-46
2021/03/03 11:39:08;;;;;;;1999.90;999.90;;;31.80;36.60;;;;;;5056249;28;20620;-51
2021/03/03 11:41:37;;;;;;;1999.90;999.90;;;31.60;36.70;;;;;;5056460;28;20173;-54
2021/03/03 11:44:05;;;;;;;1999.90;999.90;;;30.90;37.30;;;;;;5056176;28;20538;-55
2021/03/03 11:46:32;;;;;;;1999.90;999.90;;;31.20;37.40;;;;;;5056228;28;20185;-53
2021/03/03 11:48:59;;;;;;;1999.90;999.90;;;32.00;36.40;;;;;;5056634;28;20164;-49
2021/03/03 11:51:26;;;;;;;1999.90;999.90;;;32.50;35.40;;;;;;5056301;28;20232;-47
2021/03/03 11:53:53;;;;;;;1999.90;999.90;;;32.90;34.20;;;;;;5055976;28;20177;-51
2021/03/03 11:56:20;;;;;;;1999.90;999.90;;;32.90;34.60;;;;;;5055896;28;20643;-44
2021/03/03 11:58:47;;;;;;;1999.90;999.90;;;33.00;33.90;;;;;;5056115;28;20227;-55
2021/03/03 12:01:13;;;;;;;1999.90;999.90;;;33.10;33.10;;;;;;5056266;28;20166;-60
2021/03/03 12:03:40;;;;;;;1999.90;999.90;;;32.90;32.90;;;;;;5054661;28;20176;-55
2021/03/03 12:06:07;;;;;;;1999.90;999.90;;;32.90;32.80;;;;;;5056030;28;20537;-58
2021/03/03 12:08:34;;;;;;;1999.90;999.90;;;32.70;33.20;;;;;;5056095;28;20173;-59
2021/03/03 12:11:05;;;;;;;1999.90;999.90;;;32.70;33.50;;;;;;5054828;28;20236;-58